Pires Coelho — CUPM6 — position and weather

sailwx.info

Track history (hours):
 
Tides and Currents Weather Stations Pressure Air Temp Water Temp Dewpoint Dewpoint Depression Visibility Wind Speed Wind Dir Waves Ship Positions

Pires Coelho

Last reported at 2017-Mar-22 20:20 UTC. Time now 2017-Mar-25 13:36 UTC.
Position N 36°53' W 008°39'.

Length 25 m.

Type: Ship. MMSI: 263236000.

Date/timePositionNaut miles runAvg speedWind from/ knotsBaromVisibWave heightAir tempDewpointWater temp
2017-Mar-22 20:20N 36°53' W 008°39'5 5.0
2017-Mar-22 19:23N 36°52' W 008°44'2 2.8
2017-Mar-22 18:33N 36°50' W 008°43'4 0.2
2017-Mar-21 21:08N 36°46' W 008°44'6 0.6
2017-Mar-21 11:23N 36°52' W 008°44'2 2.3
2017-Mar-21 10:33N 36°51' W 008°45'2 2.4
2017-Mar-21 09:31N 36°49' W 008°43'10 2.9
2017-Mar-21 06:11N 36°47' W 008°31'2 3.1
2017-Mar-21 05:28N 36°47' W 008°29'9 1.9
2017-Mar-21 00:33N 36°54' W 008°21'1010.1
2017-Mar-20 23:33N 37°03' W 008°28'6 5.8
2017-Mar-20 22:31N 37°08' W 008°32'1 1.4
2017-Mar-20 21:33N 37°07' W 008°32'10 9.6
2017-Mar-20 20:33N 36°58' W 008°36'9 8.1
2017-Mar-20 19:29N 36°50' W 008°40'2 2.0
2017-Mar-20 18:33N 36°50' W 008°42'3 3.0
2017-Mar-20 17:32N 36°50' W 008°46'3 2.2
2017-Mar-20 16:19N 36°49' W 008°49'1 1.4
2017-Mar-20 15:15N 36°49' W 008°47'2 2.9
2017-Mar-20 14:34N 36°48' W 008°44'4 2.9
2017-Mar-20 13:21N 36°49' W 008°40'1 0.1
2017-Mar-20 09:28N 36°48' W 008°39'3 2.8
2017-Mar-20 08:31N 36°49' W 008°43'3 2.9
2017-Mar-20 07:32N 36°49' W 008°46'3 2.0
2017-Mar-20 06:08N 36°47' W 008°46'8 2.9
2017-Mar-20 03:31N 36°47' W 008°55'3 2.8
2017-Mar-20 02:27N 36°46' W 008°59'3 3.0
2017-Mar-20 01:26N 36°46' W 009°03'13 6.5
2017-Mar-19 23:29N 36°58' W 008°58'4 3.8
2017-Mar-19 22:33N 37°01' W 008°56'0 0.2
2017-Mar-19 20:33N 37°00' W 008°56'13 8.6
2017-Mar-19 19:04N 37°11' W 009°04'610.1
2017-Mar-19 18:30N 37°16' W 009°06'8 3.9
2017-Mar-19 16:22N 37°25' W 009°07'2 2.9
2017-Mar-19 15:33N 37°27' W 009°08'6 5.8
2017-Mar-19 14:33N 37°33' W 009°08'9 9.1
2017-Mar-19 13:31N 37°42' W 009°08'2 1.9
2017-Mar-19 12:34N 37°44' W 009°08'3 2.9
2017-Mar-19 11:34N 37°47' W 009°07'3 2.8
2017-Mar-19 10:33N 37°50' W 009°08'3 3.2
2017-Mar-19 09:33N 37°53' W 009°10'1 0.6
2017-Mar-19 08:33N 37°52' W 009°10'3 2.9
2017-Mar-19 07:34N 37°55' W 009°10'3 2.9
2017-Mar-19 06:34N 37°58' W 009°10'4 4.2
2017-Mar-19 05:34N 38°02' W 009°12'10 9.8
2017-Mar-19 04:33N 38°07' W 009°23'2 2.3
2017-Mar-19 03:34N 38°09' W 009°25'3 2.9
2017-Mar-19 02:34N 38°06' W 009°27'3 2.9
2017-Mar-19 01:34N 38°04' W 009°29'4 3.8
2017-Mar-19 00:34N 38°01' W 009°32'7 5.9
2017-Mar-18 23:24N 37°54' W 009°34'0 0.6
2017-Mar-18 22:33N 37°55' W 009°34'3 2.8
2017-Mar-18 21:33N 37°57' W 009°32'3 2.7
2017-Mar-18 20:34N 37°59' W 009°30'3 2.8
2017-Mar-18 19:33N 38°02' W 009°28'4 3.6
2017-Mar-18 18:32N 38°05' W 009°27'2 1.9
2017-Mar-18 17:26N 38°03' W 009°28'0 0.4
2017-Mar-18 16:33N 38°04' W 009°28'3 2.8
2017-Mar-18 15:34N 38°01' W 009°29'3 2.8
2017-Mar-18 14:33N 37°58' W 009°30'3 2.7
2017-Mar-18 13:33N 37°56' W 009°32'1 1.2
2017-Mar-18 12:33N 37°55' W 009°33'1 0.9
2017-Mar-18 11:34N 37°56' W 009°33'3 2.8
2017-Mar-18 10:34N 37°58' W 009°30'3 2.8
2017-Mar-18 09:34N 38°01' W 009°29'3 2.7
2017-Mar-18 08:34N 38°03' W 009°28'3 2.7
2017-Mar-18 07:33N 38°05' W 009°26'3 3.1
2017-Mar-18 06:34N 38°08' W 009°23'1 1.2
2017-Mar-18 05:33N 38°07' W 009°25'1 0.8
2017-Mar-18 04:34N 38°07' W 009°24'3 3.0
2017-Mar-18 03:33N 38°05' W 009°26'3 2.9
2017-Mar-18 02:34N 38°03' W 009°28'3 2.9
2017-Mar-18 01:33N 37°60' W 009°29'3 2.9
2017-Mar-18 00:33N 37°57' W 009°31'4 3.6
2017-Mar-17 23:34N 37°54' W 009°34'1 0.8
2017-Mar-17 22:33N 37°54' W 009°34'3 2.8
2017-Mar-17 21:34N 37°56' W 009°32'3 3.0
2017-Mar-17 20:34N 37°59' W 009°31'3 2.9
2017-Mar-17 19:34N 38°01' W 009°29'3 2.9
2017-Mar-17 18:34N 38°04' W 009°27'4 3.7
2017-Mar-17 17:24N 38°07' W 009°24'4 4.1
2017-Mar-17 16:25N 38°04' W 009°27'0 0.1
2017-Mar-17 15:33N 38°04' W 009°27'3 2.6
2017-Mar-17 14:33N 38°02' W 009°28'3 2.7
2017-Mar-17 13:33N 37°59' W 009°30'3 2.5
2017-Mar-17 12:14N 37°56' W 009°32'10 6.0
2017-Mar-17 10:33N 37°52' W 009°20'9 8.5
2017-Mar-17 09:31N 37°49' W 009°10'2 2.0
2017-Mar-17 08:34N 37°48' W 009°09'3 3.0
2017-Mar-17 07:34N 37°45' W 009°09'3 3.0
2017-Mar-17 06:33N 37°42' W 009°10'43 8.5
2017-Mar-17 01:32N 36°60' W 008°59'10 9.8
2017-Mar-17 00:32N 37°01' W 008°47'1010.1
2017-Mar-16 23:33N 37°04' W 008°35'5 4.4
2017-Mar-16 22:30N 37°08' W 008°32'0 0.0
2017-Mar-16 21:29N 37°08' W 008°32'0 0.0
2017-Mar-16 20:28N 37°08' W 008°32'0 0.0
2017-Mar-16 19:33N 37°08' W 008°32'0 0.0
2017-Mar-16 18:32N 37°08' W 008°32'0 0.0
2017-Mar-16 17:32N 37°08' W 008°32'0 0.0
2017-Mar-16 16:34N 37°08' W 008°32'0 0.0
2017-Mar-16 15:31N 37°08' W 008°32'0 0.0
2017-Mar-16 14:34N 37°08' W 008°32'0 0.0
2017-Mar-16 13:31N 37°08' W 008°32'0 0.0
2017-Mar-16 12:33N 37°08' W 008°32'0 0.0
2017-Mar-16 11:34N 37°08' W 008°32'0 0.0
2017-Mar-16 10:34N 37°08' W 008°32'0 0.0
2017-Mar-16 09:33N 37°08' W 008°32'0 0.0
2017-Mar-16 08:32N 37°08' W 008°32'0 0.0
2017-Mar-16 07:32N 37°08' W 008°32'0 0.0
2017-Mar-16 06:31N 37°08' W 008°32'0 0.0
2017-Mar-16 05:34N 37°08' W 008°32'0 0.0
2017-Mar-16 04:28N 37°08' W 008°32'0 0.0
2017-Mar-16 03:29N 37°08' W 008°32'0 0.0
2017-Mar-16 02:33N 37°08' W 008°32'0 0.0
2017-Mar-16 01:33N 37°08' W 008°32'0 0.0
2017-Mar-16 00:32N 37°08' W 008°32'0 0.0
2017-Mar-15 23:32N 37°08' W 008°32'0 0.0
2017-Mar-15 22:30N 37°08' W 008°32'0 0.0
2017-Mar-15 21:33N 37°08' W 008°32'0 0.0
2017-Mar-15 20:28N 37°08' W 008°32'0 0.0
2017-Mar-15 19:33N 37°08' W 008°32'0 0.0
2017-Mar-15 18:33N 37°08' W 008°32'0 0.0
2017-Mar-15 17:33N 37°08' W 008°32'0 0.0
2017-Mar-15 16:30N 37°08' W 008°32'0 0.0
2017-Mar-15 15:33N 37°08' W 008°32'0 0.0
2017-Mar-15 14:33N 37°08' W 008°32'0 0.0
2017-Mar-15 13:26N 37°08' W 008°32'0 0.0
2017-Mar-15 12:33N 37°08' W 008°32'  
Track history (hours):
 
Tides and Currents Weather Stations Pressure Air Temp Water Temp Dewpoint Dewpoint Depression Visibility Wind Speed Wind Dir Waves Ship Positions

Pires Coelho

Last reported at 2017-Mar-22 20:20 UTC. Time now 2017-Mar-25 13:36 UTC.
Position N 36°53' W 008°39'.

Length 25 m.

Type: Ship. MMSI: 263236000.

Date/timePositionNaut miles runAvg speedWind from/ knotsBaromVisibWave heightAir tempDewpointWater temp
2017-Mar-22 20:20N 36°53' W 008°39'5 5.0
2017-Mar-22 19:23N 36°52' W 008°44'2 2.8
2017-Mar-22 18:33N 36°50' W 008°43'4 0.2
2017-Mar-21 21:08N 36°46' W 008°44'6 0.6
2017-Mar-21 11:23N 36°52' W 008°44'2 2.3
2017-Mar-21 10:33N 36°51' W 008°45'2 2.4
2017-Mar-21 09:31N 36°49' W 008°43'10 2.9
2017-Mar-21 06:11N 36°47' W 008°31'2 3.1
2017-Mar-21 05:28N 36°47' W 008°29'9 1.9
2017-Mar-21 00:33N 36°54' W 008°21'1010.1
2017-Mar-20 23:33N 37°03' W 008°28'6 5.8
2017-Mar-20 22:31N 37°08' W 008°32'1 1.4
2017-Mar-20 21:33N 37°07' W 008°32'10 9.6
2017-Mar-20 20:33N 36°58' W 008°36'9 8.1
2017-Mar-20 19:29N 36°50' W 008°40'2 2.0
2017-Mar-20 18:33N 36°50' W 008°42'3 3.0
2017-Mar-20 17:32N 36°50' W 008°46'3 2.2
2017-Mar-20 16:19N 36°49' W 008°49'1 1.4
2017-Mar-20 15:15N 36°49' W 008°47'2 2.9
2017-Mar-20 14:34N 36°48' W 008°44'4 2.9
2017-Mar-20 13:21N 36°49' W 008°40'1 0.1
2017-Mar-20 09:28N 36°48' W 008°39'3 2.8
2017-Mar-20 08:31N 36°49' W 008°43'3 2.9
2017-Mar-20 07:32N 36°49' W 008°46'3 2.0
2017-Mar-20 06:08N 36°47' W 008°46'8 2.9
2017-Mar-20 03:31N 36°47' W 008°55'3 2.8
2017-Mar-20 02:27N 36°46' W 008°59'3 3.0
2017-Mar-20 01:26N 36°46' W 009°03'13 6.5
2017-Mar-19 23:29N 36°58' W 008°58'4 3.8
2017-Mar-19 22:33N 37°01' W 008°56'0 0.2
2017-Mar-19 20:33N 37°00' W 008°56'13 8.6
2017-Mar-19 19:04N 37°11' W 009°04'610.1
2017-Mar-19 18:30N 37°16' W 009°06'8 3.9
2017-Mar-19 16:22N 37°25' W 009°07'2 2.9
2017-Mar-19 15:33N 37°27' W 009°08'6 5.8
2017-Mar-19 14:33N 37°33' W 009°08'9 9.1
2017-Mar-19 13:31N 37°42' W 009°08'2 1.9
2017-Mar-19 12:34N 37°44' W 009°08'3 2.9
2017-Mar-19 11:34N 37°47' W 009°07'3 2.8
2017-Mar-19 10:33N 37°50' W 009°08'3 3.2
2017-Mar-19 09:33N 37°53' W 009°10'1 0.6
2017-Mar-19 08:33N 37°52' W 009°10'3 2.9
2017-Mar-19 07:34N 37°55' W 009°10'3 2.9
2017-Mar-19 06:34N 37°58' W 009°10'4 4.2
2017-Mar-19 05:34N 38°02' W 009°12'10 9.8
2017-Mar-19 04:33N 38°07' W 009°23'2 2.3
2017-Mar-19 03:34N 38°09' W 009°25'3 2.9
2017-Mar-19 02:34N 38°06' W 009°27'3 2.9
2017-Mar-19 01:34N 38°04' W 009°29'4 3.8
2017-Mar-19 00:34N 38°01' W 009°32'7 5.9
2017-Mar-18 23:24N 37°54' W 009°34'0 0.6
2017-Mar-18 22:33N 37°55' W 009°34'3 2.8
2017-Mar-18 21:33N 37°57' W 009°32'3 2.7
2017-Mar-18 20:34N 37°59' W 009°30'3 2.8
2017-Mar-18 19:33N 38°02' W 009°28'4 3.6
2017-Mar-18 18:32N 38°05' W 009°27'2 1.9
2017-Mar-18 17:26N 38°03' W 009°28'0 0.4
2017-Mar-18 16:33N 38°04' W 009°28'3 2.8
2017-Mar-18 15:34N 38°01' W 009°29'3 2.8
2017-Mar-18 14:33N 37°58' W 009°30'3 2.7
2017-Mar-18 13:33N 37°56' W 009°32'1 1.2
2017-Mar-18 12:33N 37°55' W 009°33'1 0.9
2017-Mar-18 11:34N 37°56' W 009°33'3 2.8
2017-Mar-18 10:34N 37°58' W 009°30'3 2.8
2017-Mar-18 09:34N 38°01' W 009°29'3 2.7
2017-Mar-18 08:34N 38°03' W 009°28'3 2.7
2017-Mar-18 07:33N 38°05' W 009°26'3 3.1
2017-Mar-18 06:34N 38°08' W 009°23'1 1.2
2017-Mar-18 05:33N 38°07' W 009°25'1 0.8
2017-Mar-18 04:34N 38°07' W 009°24'3 3.0
2017-Mar-18 03:33N 38°05' W 009°26'3 2.9
2017-Mar-18 02:34N 38°03' W 009°28'3 2.9
2017-Mar-18 01:33N 37°60' W 009°29'3 2.9
2017-Mar-18 00:33N 37°57' W 009°31'4 3.6
2017-Mar-17 23:34N 37°54' W 009°34'1 0.8
2017-Mar-17 22:33N 37°54' W 009°34'3 2.8
2017-Mar-17 21:34N 37°56' W 009°32'3 3.0
2017-Mar-17 20:34N 37°59' W 009°31'3 2.9
2017-Mar-17 19:34N 38°01' W 009°29'3 2.9
2017-Mar-17 18:34N 38°04' W 009°27'4 3.7
2017-Mar-17 17:24N 38°07' W 009°24'4 4.1
2017-Mar-17 16:25N 38°04' W 009°27'0 0.1
2017-Mar-17 15:33N 38°04' W 009°27'3 2.6
2017-Mar-17 14:33N 38°02' W 009°28'3 2.7
2017-Mar-17 13:33N 37°59' W 009°30'3 2.5
2017-Mar-17 12:14N 37°56' W 009°32'10 6.0
2017-Mar-17 10:33N 37°52' W 009°20'9 8.5
2017-Mar-17 09:31N 37°49' W 009°10'2 2.0
2017-Mar-17 08:34N 37°48' W 009°09'3 3.0
2017-Mar-17 07:34N 37°45' W 009°09'3 3.0
2017-Mar-17 06:33N 37°42' W 009°10'43 8.5
2017-Mar-17 01:32N 36°60' W 008°59'10 9.8
2017-Mar-17 00:32N 37°01' W 008°47'1010.1
2017-Mar-16 23:33N 37°04' W 008°35'5 4.4
2017-Mar-16 22:30N 37°08' W 008°32'0 0.0
2017-Mar-16 21:29N 37°08' W 008°32'0 0.0
2017-Mar-16 20:28N 37°08' W 008°32'0 0.0
2017-Mar-16 19:33N 37°08' W 008°32'0 0.0
2017-Mar-16 18:32N 37°08' W 008°32'0 0.0
2017-Mar-16 17:32N 37°08' W 008°32'0 0.0
2017-Mar-16 16:34N 37°08' W 008°32'0 0.0
2017-Mar-16 15:31N 37°08' W 008°32'0 0.0
2017-Mar-16 14:34N 37°08' W 008°32'0 0.0
2017-Mar-16 13:31N 37°08' W 008°32'0 0.0
2017-Mar-16 12:33N 37°08' W 008°32'0 0.0
2017-Mar-16 11:34N 37°08' W 008°32'0 0.0
2017-Mar-16 10:34N 37°08' W 008°32'0 0.0
2017-Mar-16 09:33N 37°08' W 008°32'0 0.0
2017-Mar-16 08:32N 37°08' W 008°32'0 0.0
2017-Mar-16 07:32N 37°08' W 008°32'0 0.0
2017-Mar-16 06:31N 37°08' W 008°32'0 0.0
2017-Mar-16 05:34N 37°08' W 008°32'0 0.0
2017-Mar-16 04:28N 37°08' W 008°32'0 0.0
2017-Mar-16 03:29N 37°08' W 008°32'0 0.0
2017-Mar-16 02:33N 37°08' W 008°32'0 0.0
2017-Mar-16 01:33N 37°08' W 008°32'0 0.0
2017-Mar-16 00:32N 37°08' W 008°32'0 0.0
2017-Mar-15 23:32N 37°08' W 008°32'0 0.0
2017-Mar-15 22:30N 37°08' W 008°32'0 0.0
2017-Mar-15 21:33N 37°08' W 008°32'0 0.0
2017-Mar-15 20:28N 37°08' W 008°32'0 0.0
2017-Mar-15 19:33N 37°08' W 008°32'0 0.0
2017-Mar-15 18:33N 37°08' W 008°32'0 0.0
2017-Mar-15 17:33N 37°08' W 008°32'0 0.0
2017-Mar-15 16:30N 37°08' W 008°32'0 0.0
2017-Mar-15 15:33N 37°08' W 008°32'0 0.0
2017-Mar-15 14:33N 37°08' W 008°32'0 0.0
2017-Mar-15 13:26N 37°08' W 008°32'0 0.0
2017-Mar-15 12:33N 37°08' W 008°32'  

Dump ship's entire track history